sensor_id;sensor_type;location;lat;lon;timestamp;P1;P2;P0
70243;PMS7003;57634;51.136;17.024;2022-08-30T00:01:21;4;3;3
70243;PMS7003;57634;51.136;17.024;2022-08-30T00:04:25;3;3;2
70243;PMS7003;57634;51.136;17.024;2022-08-30T00:07:27;4;4;2
70243;PMS7003;57634;51.136;17.024;2022-08-30T00:10:29;3;3;2
70243;PMS7003;57634;51.136;17.024;2022-08-30T00:13:31;3;3;2
70243;PMS7003;57634;51.136;17.024;2022-08-30T00:16:32;3;3;2
70243;PMS7003;57634;51.136;17.024;2022-08-30T00:19:33;4;4;2
70243;PMS7003;57634;51.136;17.024;2022-08-30T00:23:03;4;4;3
70243;PMS7003;57634;51.136;17.024;2022-08-30T00:26:05;4;4;3
70243;PMS7003;57634;51.136;17.024;2022-08-30T00:29:07;4;4;3
70243;PMS7003;57634;51.136;17.024;2022-08-30T00:32:09;5;4;3
70243;PMS7003;57634;51.136;17.024;2022-08-30T00:35:13;4;4;2
70243;PMS7003;57634;51.136;17.024;2022-08-30T00:38:16;5;4;3
70243;PMS7003;57634;51.136;17.024;2022-08-30T00:41:17;3;3;2
70243;PMS7003;57634;51.136;17.024;2022-08-30T00:44:19;4;4;3
70243;PMS7003;57634;51.136;17.024;2022-08-30T00:47:20;5;5;3
70243;PMS7003;57634;51.136;17.024;2022-08-30T00:50:23;5;4;3
70243;PMS7003;57634;51.136;17.024;2022-08-30T00:53:30;4;4;3
70243;PMS7003;57634;51.136;17.024;2022-08-30T00:57:02;6;6;4
70243;PMS7003;57634;51.136;17.024;2022-08-30T01:00:05;8;7;4
70243;PMS7003;57634;51.136;17.024;2022-08-30T01:03:08;6;6;4
70243;PMS7003;57634;51.136;17.024;2022-08-30T01:06:10;6;6;4
70243;PMS7003;57634;51.136;17.024;2022-08-30T01:09:15;8;6;4
70243;PMS7003;57634;51.136;17.024;2022-08-30T01:12:16;6;6;4
70243;PMS7003;57634;51.136;17.024;2022-08-30T01:15:18;5;5;4
70243;PMS7003;57634;51.136;17.024;2022-08-30T01:18:20;5;5;4
70243;PMS7003;57634;51.136;17.024;2022-08-30T01:21:28;5;4;3
70243;PMS7003;57634;51.136;17.024;2022-08-30T01:24:34;5;5;3
70243;PMS7003;57634;51.136;17.024;2022-08-30T01:28:03;7;6;4
70243;PMS7003;57634;51.136;17.024;2022-08-30T01:31:08;6;5;4
70243;PMS7003;57634;51.136;17.024;2022-08-30T01:34:10;4;3;3
70243;PMS7003;57634;51.136;17.024;2022-08-30T01:37:12;5;5;3
70243;PMS7003;57634;51.136;17.024;2022-08-30T01:40:17;6;6;3
70243;PMS7003;57634;51.136;17.024;2022-08-30T01:43:19;4;4;3
70243;PMS7003;57634;51.136;17.024;2022-08-30T01:46:21;6;6;3
70243;PMS7003;57634;51.136;17.024;2022-08-30T01:49:24;6;6;4
70243;PMS7003;57634;51.136;17.024;2022-08-30T01:52:26;6;5;3
70243;PMS7003;57634;51.136;17.024;2022-08-30T01:55:27;6;5;3
70243;PMS7003;57634;51.136;17.024;2022-08-30T01:58:29;5;5;4
70243;PMS7003;57634;51.136;17.024;2022-08-30T02:01:59;6;6;3
70243;PMS7003;57634;51.136;17.024;2022-08-30T02:05:00;5;5;3
70243;PMS7003;57634;51.136;17.024;2022-08-30T02:08:02;6;5;4
70243;PMS7003;57634;51.136;17.024;2022-08-30T02:11:05;5;4;3
70243;PMS7003;57634;51.136;17.024;2022-08-30T02:14:06;6;5;3
70243;PMS7003;57634;51.136;17.024;2022-08-30T02:17:09;7;6;4
70243;PMS7003;57634;51.136;17.024;2022-08-30T02:20:12;7;6;4
70243;PMS7003;57634;51.136;17.024;2022-08-30T02:23:13;7;7;4
70243;PMS7003;57634;51.136;17.024;2022-08-30T02:26:15;7;7;4
70243;PMS7003;57634;51.136;17.024;2022-08-30T02:29:17;6;6;5
70243;PMS7003;57634;51.136;17.024;2022-08-30T02:32:20;7;7;6
70243;PMS7003;57634;51.136;17.024;2022-08-30T02:35:21;7;7;4
70243;PMS7003;57634;51.136;17.024;2022-08-30T02:38:23;8;7;5
70243;PMS7003;57634;51.136;17.024;2022-08-30T02:41:52;8;7;6
70243;PMS7003;57634;51.136;17.024;2022-08-30T02:44:53;6;6;4
70243;PMS7003;57634;51.136;17.024;2022-08-30T02:47:55;8;8;5
70243;PMS7003;57634;51.136;17.024;2022-08-30T02:51:02;9;7;5
70243;PMS7003;57634;51.136;17.024;2022-08-30T02:54:09;7;6;4
70243;PMS7003;57634;51.136;17.024;2022-08-30T02:57:19;7;7;5
70243;PMS7003;57634;51.136;17.024;2022-08-30T03:00:20;6;5;3
70243;PMS7003;57634;51.136;17.024;2022-08-30T03:03:22;7;7;4
70243;PMS7003;57634;51.136;17.024;2022-08-30T03:06:24;7;7;5
70243;PMS7003;57634;51.136;17.024;2022-08-30T03:09:25;9;8;5
70243;PMS7003;57634;51.136;17.024;2022-08-30T03:12:53;6;5;4
70243;PMS7003;57634;51.136;17.024;2022-08-30T03:15:55;7;7;4
70243;PMS7003;57634;51.136;17.024;2022-08-30T03:18:57;7;6;4
70243;PMS7003;57634;51.136;17.024;2022-08-30T03:21:58;8;7;5
70243;PMS7003;57634;51.136;17.024;2022-08-30T03:24:59;7;7;4
70243;PMS7003;57634;51.136;17.024;2022-08-30T03:28:01;5;5;4
70243;PMS7003;57634;51.136;17.024;2022-08-30T03:31:03;7;7;4
70243;PMS7003;57634;51.136;17.024;2022-08-30T03:34:05;6;5;3
70243;PMS7003;57634;51.136;17.024;2022-08-30T03:37:07;7;5;3
70243;PMS7003;57634;51.136;17.024;2022-08-30T03:40:09;6;6;4
70243;PMS7003;57634;51.136;17.024;2022-08-30T03:43:12;7;7;5
70243;PMS7003;57634;51.136;17.024;2022-08-30T03:46:13;7;6;3
70243;PMS7003;57634;51.136;17.024;2022-08-30T03:49:15;5;5;3
70243;PMS7003;57634;51.136;17.024;2022-08-30T03:52:43;7;7;5
70243;PMS7003;57634;51.136;17.024;2022-08-30T03:55:45;6;6;4
70243;PMS7003;57634;51.136;17.024;2022-08-30T03:58:47;6;6;4
70243;PMS7003;57634;51.136;17.024;2022-08-30T04:01:49;7;7;4
70243;PMS7003;57634;51.136;17.024;2022-08-30T04:04:51;6;6;4
70243;PMS7003;57634;51.136;17.024;2022-08-30T04:07:53;7;6;4
70243;PMS7003;57634;51.136;17.024;2022-08-30T04:10:54;8;7;5
70243;PMS7003;57634;51.136;17.024;2022-08-30T04:13:56;8;8;5
70243;PMS7003;57634;51.136;17.024;2022-08-30T04:16:58;7;6;4
70243;PMS7003;57634;51.136;17.024;2022-08-30T04:19:59;8;8;6
70243;PMS7003;57634;51.136;17.024;2022-08-30T04:23:00;8;8;6
70243;PMS7003;57634;51.136;17.024;2022-08-30T04:26:02;8;7;6
70243;PMS7003;57634;51.136;17.024;2022-08-30T04:29:03;7;7;5
70243;PMS7003;57634;51.136;17.024;2022-08-30T04:32:05;7;6;4
70243;PMS7003;57634;51.136;17.024;2022-08-30T04:35:33;7;7;4
70243;PMS7003;57634;51.136;17.024;2022-08-30T04:38:35;6;6;4
70243;PMS7003;57634;51.136;17.024;2022-08-30T04:41:37;7;6;5
70243;PMS7003;57634;51.136;17.024;2022-08-30T04:44:40;7;7;4
70243;PMS7003;57634;51.136;17.024;2022-08-30T04:47:41;8;7;4
70243;PMS7003;57634;51.136;17.024;2022-08-30T04:50:44;4;4;3
70243;PMS7003;57634;51.136;17.024;2022-08-30T04:53:46;6;5;3
70243;PMS7003;57634;51.136;17.024;2022-08-30T04:56:48;4;4;3
70243;PMS7003;57634;51.136;17.024;2022-08-30T04:59:49;5;5;3
70243;PMS7003;57634;51.136;17.024;2022-08-30T05:02:51;6;5;4
70243;PMS7003;57634;51.136;17.024;2022-08-30T05:05:52;6;5;3
70243;PMS7003;57634;51.136;17.024;2022-08-30T05:08:54;6;5;4
70243;PMS7003;57634;51.136;17.024;2022-08-30T05:11:55;7;6;5
70243;PMS7003;57634;51.136;17.024;2022-08-30T05:15:24;5;5;4
70243;PMS7003;57634;51.136;17.024;2022-08-30T05:18:25;5;5;4
70243;PMS7003;57634;51.136;17.024;2022-08-30T05:21:27;4;4;3
70243;PMS7003;57634;51.136;17.024;2022-08-30T05:24:29;6;5;4
70243;PMS7003;57634;51.136;17.024;2022-08-30T05:27:31;6;6;4
70243;PMS7003;57634;51.136;17.024;2022-08-30T05:30:34;4;4;3
70243;PMS7003;57634;51.136;17.024;2022-08-30T05:33:37;7;6;4
70243;PMS7003;57634;51.136;17.024;2022-08-30T05:36:39;6;5;4
70243;PMS7003;57634;51.136;17.024;2022-08-30T05:39:40;5;5;3
70243;PMS7003;57634;51.136;17.024;2022-08-30T05:42:45;5;5;4
70243;PMS7003;57634;51.136;17.024;2022-08-30T05:45:47;6;5;4
70243;PMS7003;57634;51.136;17.024;2022-08-30T05:48:49;5;5;4
70243;PMS7003;57634;51.136;17.024;2022-08-30T05:52:18;5;4;3
70243;PMS7003;57634;51.136;17.024;2022-08-30T05:55:19;7;7;5
70243;PMS7003;57634;51.136;17.024;2022-08-30T05:58:22;6;6;4
70243;PMS7003;57634;51.136;17.024;2022-08-30T06:01:28;5;5;3
70243;PMS7003;57634;51.136;17.024;2022-08-30T06:04:34;6;5;4
70243;PMS7003;57634;51.136;17.024;2022-08-30T06:07:39;4;4;4
70243;PMS7003;57634;51.136;17.024;2022-08-30T06:10:41;5;5;3
70243;PMS7003;57634;51.136;17.024;2022-08-30T06:13:42;2;2;0
70243;PMS7003;57634;51.136;17.024;2022-08-30T06:16:43;5;4;3
70243;PMS7003;57634;51.136;17.024;2022-08-30T06:19:45;5;4;3
70243;PMS7003;57634;51.136;17.024;2022-08-30T06:22:47;5;5;3
70243;PMS7003;57634;51.136;17.024;2022-08-30T06:26:14;5;5;4
70243;PMS7003;57634;51.136;17.024;2022-08-30T06:29:17;5;5;4
70243;PMS7003;57634;51.136;17.024;2022-08-30T06:32:20;4;4;3
70243;PMS7003;57634;51.136;17.024;2022-08-30T06:35:22;5;5;3
70243;PMS7003;57634;51.136;17.024;2022-08-30T06:38:23;5;5;4
70243;PMS7003;57634;51.136;17.024;2022-08-30T06:41:26;5;4;3
70243;PMS7003;57634;51.136;17.024;2022-08-30T06:44:29;5;4;3
70243;PMS7003;57634;51.136;17.024;2022-08-30T06:47:31;5;5;4
70243;PMS7003;57634;51.136;17.024;2022-08-30T06:50:33;5;5;3
70243;PMS7003;57634;51.136;17.024;2022-08-30T06:53:34;5;5;3
70243;PMS7003;57634;51.136;17.024;2022-08-30T06:56:36;5;5;3
70243;PMS7003;57634;51.136;17.024;2022-08-30T06:59:38;5;5;3
70243;PMS7003;57634;51.136;17.024;2022-08-30T07:03:07;4;4;3
70243;PMS7003;57634;51.136;17.024;2022-08-30T07:06:09;5;5;3
70243;PMS7003;57634;51.136;17.024;2022-08-30T07:09:11;4;4;3
70243;PMS7003;57634;51.136;17.024;2022-08-30T07:12:13;5;4;3
70243;PMS7003;57634;51.136;17.024;2022-08-30T07:15:15;5;4;3
70243;PMS7003;57634;51.136;17.024;2022-08-30T07:18:22;4;4;3
70243;PMS7003;57634;51.136;17.024;2022-08-30T07:21:37;6;5;3
70243;PMS7003;57634;51.136;17.024;2022-08-30T07:24:43;5;5;3
70243;PMS7003;57634;51.136;17.024;2022-08-30T07:28:13;5;5;3
70243;PMS7003;57634;51.136;17.024;2022-08-30T07:31:15;5;5;3
70243;PMS7003;57634;51.136;17.024;2022-08-30T07:34:17;4;4;3
70243;PMS7003;57634;51.136;17.024;2022-08-30T07:37:21;4;4;3
70243;PMS7003;57634;51.136;17.024;2022-08-30T07:40:23;5;5;4
70243;PMS7003;57634;51.136;17.024;2022-08-30T07:43:25;5;5;3
70243;PMS7003;57634;51.136;17.024;2022-08-30T07:46:29;4;4;3
70243;PMS7003;57634;51.136;17.024;2022-08-30T07:49:31;5;5;3
70243;PMS7003;57634;51.136;17.024;2022-08-30T07:52:32;4;4;3
70243;PMS7003;57634;51.136;17.024;2022-08-30T07:55:34;4;4;3
70243;PMS7003;57634;51.136;17.024;2022-08-30T07:58:35;4;4;2
70243;PMS7003;57634;51.136;17.024;2022-08-30T08:01:40;2;2;2
70243;PMS7003;57634;51.136;17.024;2022-08-30T08:05:08;3;3;2
70243;PMS7003;57634;51.136;17.024;2022-08-30T08:08:11;5;3;2
70243;PMS7003;57634;51.136;17.024;2022-08-30T08:11:14;3;3;2
70243;PMS7003;57634;51.136;17.024;2022-08-30T08:14:19;5;5;3
70243;PMS7003;57634;51.136;17.024;2022-08-30T08:17:23;3;3;2
70243;PMS7003;57634;51.136;17.024;2022-08-30T08:20:24;3;3;2
70243;PMS7003;57634;51.136;17.024;2022-08-30T08:23:26;4;4;2
70243;PMS7003;57634;51.136;17.024;2022-08-30T08:26:28;4;4;2
70243;PMS7003;57634;51.136;17.024;2022-08-30T08:29:30;3;3;2
70243;PMS7003;57634;51.136;17.024;2022-08-30T08:32:31;4;4;2
70243;PMS7003;57634;51.136;17.024;2022-08-30T08:35:33;3;3;2
70243;PMS7003;57634;51.136;17.024;2022-08-30T08:38:35;2;2;2
70243;PMS7003;57634;51.136;17.024;2022-08-30T08:42:06;2;2;1
70243;PMS7003;57634;51.136;17.024;2022-08-30T08:45:21;4;3;2
70243;PMS7003;57634;51.136;17.024;2022-08-30T08:51:49;3;3;2
70243;PMS7003;57634;51.136;17.024;2022-08-30T08:55:28;1;1;1
70243;PMS7003;57634;51.136;17.024;2022-08-30T08:58:39;1;1;0
70243;PMS7003;57634;51.136;17.024;2022-08-30T09:01:46;2;2;2
70243;PMS7003;57634;51.136;17.024;2022-08-30T09:04:53;1;1;1
70243;PMS7003;57634;51.136;17.024;2022-08-30T09:08:00;1;1;1
70243;PMS7003;57634;51.136;17.024;2022-08-30T09:11:05;2;2;1
70243;PMS7003;57634;51.136;17.024;2022-08-30T09:14:43;2;2;1
70243;PMS7003;57634;51.136;17.024;2022-08-30T09:21:04;0;0;0
70243;PMS7003;57634;51.136;17.024;2022-08-30T09:24:07;0;0;0
70243;PMS7003;57634;51.136;17.024;2022-08-30T09:30:25;1;1;0
70243;PMS7003;57634;51.136;17.024;2022-08-30T09:37:07;0;0;0
70243;PMS7003;57634;51.136;17.024;2022-08-30T09:40:22;0;0;0
70243;PMS7003;57634;51.136;17.024;2022-08-30T09:43:31;0;0;0
70243;PMS7003;57634;51.136;17.024;2022-08-30T09:46:41;0;0;0
70243;PMS7003;57634;51.136;17.024;2022-08-30T09:50:15;0;0;0
70243;PMS7003;57634;51.136;17.024;2022-08-30T09:53:24;0;0;0
70243;PMS7003;57634;51.136;17.024;2022-08-30T09:59:47;0;0;0
70243;PMS7003;57634;51.136;17.024;2022-08-30T10:03:00;2;2;1
70243;PMS7003;57634;51.136;17.024;2022-08-30T10:06:43;0;0;0
70243;PMS7003;57634;51.136;17.024;2022-08-30T10:09:58;0;0;0
70243;PMS7003;57634;51.136;17.024;2022-08-30T10:13:11;0;0;0
70243;PMS7003;57634;51.136;17.024;2022-08-30T10:16:23;0;0;0
70243;PMS7003;57634;51.136;17.024;2022-08-30T10:33:16;0;0;0
70243;PMS7003;57634;51.136;17.024;2022-08-30T10:36:26;0;0;0
70243;PMS7003;57634;51.136;17.024;2022-08-30T10:39:39;0;0;0
70243;PMS7003;57634;51.136;17.024;2022-08-30T10:42:45;0;0;0
70243;PMS7003;57634;51.136;17.024;2022-08-30T10:45:49;1;1;0
70243;PMS7003;57634;51.136;17.024;2022-08-30T10:48:53;1;1;0
70243;PMS7003;57634;51.136;17.024;2022-08-30T10:52:29;0;0;0
70243;PMS7003;57634;51.136;17.024;2022-08-30T10:55:41;1;1;0
70243;PMS7003;57634;51.136;17.024;2022-08-30T10:58:47;0;0;0
70243;PMS7003;57634;51.136;17.024;2022-08-30T11:02:10;0;0;0
70243;PMS7003;57634;51.136;17.024;2022-08-30T11:05:11;0;0;0
70243;PMS7003;57634;51.136;17.024;2022-08-30T11:15:18;0;0;0
70243;PMS7003;57634;51.136;17.024;2022-08-30T11:18:23;0;0;0
70243;PMS7003;57634;51.136;17.024;2022-08-30T11:21:32;0;0;0
70243;PMS7003;57634;51.136;17.024;2022-08-30T11:28:58;1;1;0
70243;PMS7003;57634;51.136;17.024;2022-08-30T11:37:52;0;0;0
70243;PMS7003;57634;51.136;17.024;2022-08-30T11:44:33;1;0;0
70243;PMS7003;57634;51.136;17.024;2022-08-30T11:47:37;0;0;0
70243;PMS7003;57634;51.136;17.024;2022-08-30T12:00:50;0;0;0
70243;PMS7003;57634;51.136;17.024;2022-08-30T12:04:08;0;0;0
70243;PMS7003;57634;51.136;17.024;2022-08-30T12:14:31;0;0;0
70243;PMS7003;57634;51.136;17.024;2022-08-30T12:17:26;0;0;0
70243;PMS7003;57634;51.136;17.024;2022-08-30T12:20:46;0;0;0
70243;PMS7003;57634;51.136;17.024;2022-08-30T12:24:16;0;0;0
70243;PMS7003;57634;51.136;17.024;2022-08-30T12:27:22;0;0;0
70243;PMS7003;57634;51.136;17.024;2022-08-30T12:30:26;0;0;0
70243;PMS7003;57634;51.136;17.024;2022-08-30T12:33:30;0;0;0
70243;PMS7003;57634;51.136;17.024;2022-08-30T12:36:38;0;0;0
70243;PMS7003;57634;51.136;17.024;2022-08-30T12:39:52;0;0;0
70243;PMS7003;57634;51.136;17.024;2022-08-30T12:46:41;0;0;0
70243;PMS7003;57634;51.136;17.024;2022-08-30T12:49:45;0;0;0
70243;PMS7003;57634;51.136;17.024;2022-08-30T12:52:58;0;0;0
70243;PMS7003;57634;51.136;17.024;2022-08-30T12:56:02;0;0;0
70243;PMS7003;57634;51.136;17.024;2022-08-30T12:59:09;0;0;0
70243;PMS7003;57634;51.136;17.024;2022-08-30T13:02:41;0;0;0
70243;PMS7003;57634;51.136;17.024;2022-08-30T13:05:53;0;0;0
70243;PMS7003;57634;51.136;17.024;2022-08-30T13:08:55;0;0;0
70243;PMS7003;57634;51.136;17.024;2022-08-30T13:11:57;0;0;0
70243;PMS7003;57634;51.136;17.024;2022-08-30T13:21:55;0;0;0
70243;PMS7003;57634;51.136;17.024;2022-08-30T13:24:58;0;0;0
70243;PMS7003;57634;51.136;17.024;2022-08-30T13:28:00;1;1;0
70243;PMS7003;57634;51.136;17.024;2022-08-30T13:31:03;1;1;0
70243;PMS7003;57634;51.136;17.024;2022-08-30T13:34:04;0;0;0
70243;PMS7003;57634;51.136;17.024;2022-08-30T13:37:06;0;0;0
70243;PMS7003;57634;51.136;17.024;2022-08-30T13:40:15;0;0;0
70243;PMS7003;57634;51.136;17.024;2022-08-30T13:43:17;0;0;0
70243;PMS7003;57634;51.136;17.024;2022-08-30T13:46:18;0;0;0
70243;PMS7003;57634;51.136;17.024;2022-08-30T13:49:25;1;1;0
70243;PMS7003;57634;51.136;17.024;2022-08-30T13:52:54;0;0;0
70243;PMS7003;57634;51.136;17.024;2022-08-30T13:55:56;0;0;0
70243;PMS7003;57634;51.136;17.024;2022-08-30T13:58:58;0;0;0
70243;PMS7003;57634;51.136;17.024;2022-08-30T14:02:00;0;0;0
70243;PMS7003;57634;51.136;17.024;2022-08-30T14:05:02;0;0;0
70243;PMS7003;57634;51.136;17.024;2022-08-30T14:08:05;0;0;0
70243;PMS7003;57634;51.136;17.024;2022-08-30T14:11:08;0;0;0
70243;PMS7003;57634;51.136;17.024;2022-08-30T14:14:15;0;0;0
70243;PMS7003;57634;51.136;17.024;2022-08-30T14:17:17;0;0;0
70243;PMS7003;57634;51.136;17.024;2022-08-30T14:20:19;1;1;0
70243;PMS7003;57634;51.136;17.024;2022-08-30T14:23:20;0;0;0
70243;PMS7003;57634;51.136;17.024;2022-08-30T14:26:22;0;0;0
70243;PMS7003;57634;51.136;17.024;2022-08-30T14:29:53;0;0;0
70243;PMS7003;57634;51.136;17.024;2022-08-30T14:32:56;0;0;0
70243;PMS7003;57634;51.136;17.024;2022-08-30T14:35:57;0;0;0
70243;PMS7003;57634;51.136;17.024;2022-08-30T14:39:00;0;0;0
70243;PMS7003;57634;51.136;17.024;2022-08-30T14:42:02;0;0;0
70243;PMS7003;57634;51.136;17.024;2022-08-30T14:45:04;0;0;0
70243;PMS7003;57634;51.136;17.024;2022-08-30T14:48:05;0;0;0
70243;PMS7003;57634;51.136;17.024;2022-08-30T14:51:13;0;0;0
70243;PMS7003;57634;51.136;17.024;2022-08-30T14:54:17;0;0;0
70243;PMS7003;57634;51.136;17.024;2022-08-30T14:57:21;0;0;0
70243;PMS7003;57634;51.136;17.024;2022-08-30T15:00:22;0;0;0
70243;PMS7003;57634;51.136;17.024;2022-08-30T15:03:50;0;0;0
70243;PMS7003;57634;51.136;17.024;2022-08-30T15:06:51;0;0;0
70243;PMS7003;57634;51.136;17.024;2022-08-30T15:09:54;0;0;0
70243;PMS7003;57634;51.136;17.024;2022-08-30T15:12:55;0;0;0
70243;PMS7003;57634;51.136;17.024;2022-08-30T15:15:59;0;0;0
70243;PMS7003;57634;51.136;17.024;2022-08-30T15:19:01;1;0;0
70243;PMS7003;57634;51.136;17.024;2022-08-30T15:22:05;0;0;0
70243;PMS7003;57634;51.136;17.024;2022-08-30T15:25:07;0;0;0
70243;PMS7003;57634;51.136;17.024;2022-08-30T15:28:09;3;3;3
70243;PMS7003;57634;51.136;17.024;2022-08-30T15:31:10;12;11;9
70243;PMS7003;57634;51.136;17.024;2022-08-30T15:34:13;3;3;2
70243;PMS7003;57634;51.136;17.024;2022-08-30T15:37:17;1;1;0
70243;PMS7003;57634;51.136;17.024;2022-08-30T15:40:49;0;0;0
70243;PMS7003;57634;51.136;17.024;2022-08-30T15:43:50;1;0;0
70243;PMS7003;57634;51.136;17.024;2022-08-30T15:46:52;0;0;0
70243;PMS7003;57634;51.136;17.024;2022-08-30T15:49:55;0;0;0
70243;PMS7003;57634;51.136;17.024;2022-08-30T15:52:58;0;0;0
70243;PMS7003;57634;51.136;17.024;2022-08-30T15:56:00;2;2;2
70243;PMS7003;57634;51.136;17.024;2022-08-30T15:59:02;1;1;0
70243;PMS7003;57634;51.136;17.024;2022-08-30T16:02:04;1;0;0
70243;PMS7003;57634;51.136;17.024;2022-08-30T16:05:06;1;1;0
70243;PMS7003;57634;51.136;17.024;2022-08-30T16:08:08;1;1;0
70243;PMS7003;57634;51.136;17.024;2022-08-30T16:11:13;0;0;0
70243;PMS7003;57634;51.136;17.024;2022-08-30T16:14:16;0;0;0
70243;PMS7003;57634;51.136;17.024;2022-08-30T16:17:43;0;0;0
70243;PMS7003;57634;51.136;17.024;2022-08-30T16:20:45;1;1;0
70243;PMS7003;57634;51.136;17.024;2022-08-30T16:23:47;0;0;0
70243;PMS7003;57634;51.136;17.024;2022-08-30T16:26:48;0;0;0
70243;PMS7003;57634;51.136;17.024;2022-08-30T16:29:49;0;0;0
70243;PMS7003;57634;51.136;17.024;2022-08-30T16:35:30;1;1;0
70243;PMS7003;57634;51.136;17.024;2022-08-30T16:38:32;1;1;1
70243;PMS7003;57634;51.136;17.024;2022-08-30T16:41:35;1;1;1
70243;PMS7003;57634;51.136;17.024;2022-08-30T16:44:37;1;1;0
70243;PMS7003;57634;51.136;17.024;2022-08-30T16:47:38;2;2;1
70243;PMS7003;57634;51.136;17.024;2022-08-30T16:50:41;3;2;2
70243;PMS7003;57634;51.136;17.024;2022-08-30T16:53:44;2;1;1
70243;PMS7003;57634;51.136;17.024;2022-08-30T16:56:46;2;1;1
70243;PMS7003;57634;51.136;17.024;2022-08-30T16:59:48;1;1;1
70243;PMS7003;57634;51.136;17.024;2022-08-30T17:02:52;1;0;0
70243;PMS7003;57634;51.136;17.024;2022-08-30T17:05:55;1;1;1
70243;PMS7003;57634;51.136;17.024;2022-08-30T17:09:24;1;1;0
70243;PMS7003;57634;51.136;17.024;2022-08-30T17:12:26;1;1;1
70243;PMS7003;57634;51.136;17.024;2022-08-30T17:15:28;2;2;2
70243;PMS7003;57634;51.136;17.024;2022-08-30T17:18:29;1;1;1
70243;PMS7003;57634;51.136;17.024;2022-08-30T17:21:31;3;2;1
70243;PMS7003;57634;51.136;17.024;2022-08-30T17:24:32;1;1;0
70243;PMS7003;57634;51.136;17.024;2022-08-30T17:27:34;1;1;0
70243;PMS7003;57634;51.136;17.024;2022-08-30T17:30:36;1;1;1
70243;PMS7003;57634;51.136;17.024;2022-08-30T17:33:38;1;1;0
70243;PMS7003;57634;51.136;17.024;2022-08-30T17:36:44;2;2;1
70243;PMS7003;57634;51.136;17.024;2022-08-30T17:39:48;2;2;1
70243;PMS7003;57634;51.136;17.024;2022-08-30T17:42:49;1;1;0
70243;PMS7003;57634;51.136;17.024;2022-08-30T17:46:18;1;1;1
70243;PMS7003;57634;51.136;17.024;2022-08-30T17:49:21;1;1;1
70243;PMS7003;57634;51.136;17.024;2022-08-30T17:52:23;2;2;1
70243;PMS7003;57634;51.136;17.024;2022-08-30T17:55:24;2;2;1
70243;PMS7003;57634;51.136;17.024;2022-08-30T17:58:26;3;2;2
70243;PMS7003;57634;51.136;17.024;2022-08-30T18:01:27;2;1;1
70243;PMS7003;57634;51.136;17.024;2022-08-30T18:04:29;1;1;1
70243;PMS7003;57634;51.136;17.024;2022-08-30T18:07:31;2;2;1
70243;PMS7003;57634;51.136;17.024;2022-08-30T18:10:32;1;1;1
70243;PMS7003;57634;51.136;17.024;2022-08-30T18:13:34;2;2;1
70243;PMS7003;57634;51.136;17.024;2022-08-30T18:16:37;3;2;1
70243;PMS7003;57634;51.136;17.024;2022-08-30T18:19:40;2;2;2
70243;PMS7003;57634;51.136;17.024;2022-08-30T18:23:10;3;3;1
70243;PMS7003;57634;51.136;17.024;2022-08-30T18:26:13;3;2;1
70243;PMS7003;57634;51.136;17.024;2022-08-30T18:29:15;1;1;1
70243;PMS7003;57634;51.136;17.024;2022-08-30T18:32:17;2;2;2
70243;PMS7003;57634;51.136;17.024;2022-08-30T18:35:18;2;2;1
70243;PMS7003;57634;51.136;17.024;2022-08-30T18:38:20;2;2;1
70243;PMS7003;57634;51.136;17.024;2022-08-30T18:41:23;2;2;2
70243;PMS7003;57634;51.136;17.024;2022-08-30T18:44:25;3;3;3
70243;PMS7003;57634;51.136;17.024;2022-08-30T18:47:27;2;2;2
70243;PMS7003;57634;51.136;17.024;2022-08-30T18:50:30;1;1;1
70243;PMS7003;57634;51.136;17.024;2022-08-30T18:53:32;3;2;1
70243;PMS7003;57634;51.136;17.024;2022-08-30T18:56:35;2;2;1
70243;PMS7003;57634;51.136;17.024;2022-08-30T19:00:05;2;2;1
70243;PMS7003;57634;51.136;17.024;2022-08-30T19:03:10;2;2;1
70243;PMS7003;57634;51.136;17.024;2022-08-30T19:06:12;2;1;1
70243;PMS7003;57634;51.136;17.024;2022-08-30T19:09:14;1;1;1
70243;PMS7003;57634;51.136;17.024;2022-08-30T19:12:15;1;1;0
70243;PMS7003;57634;51.136;17.024;2022-08-30T19:15:17;2;2;1
70243;PMS7003;57634;51.136;17.024;2022-08-30T19:18:19;3;3;2
70243;PMS7003;57634;51.136;17.024;2022-08-30T19:21:21;1;1;0
70243;PMS7003;57634;51.136;17.024;2022-08-30T19:24:22;2;1;1
70243;PMS7003;57634;51.136;17.024;2022-08-30T19:27:24;0;0;0
70243;PMS7003;57634;51.136;17.024;2022-08-30T19:30:25;0;0;0
70243;PMS7003;57634;51.136;17.024;2022-08-30T19:33:28;1;0;0
70243;PMS7003;57634;51.136;17.024;2022-08-30T19:36:29;1;1;1
70243;PMS7003;57634;51.136;17.024;2022-08-30T19:39:57;0;0;0
70243;PMS7003;57634;51.136;17.024;2022-08-30T19:42:58;1;0;0
70243;PMS7003;57634;51.136;17.024;2022-08-30T19:45:59;1;1;0
70243;PMS7003;57634;51.136;17.024;2022-08-30T19:49:01;2;1;0
70243;PMS7003;57634;51.136;17.024;2022-08-30T19:52:06;1;1;0
70243;PMS7003;57634;51.136;17.024;2022-08-30T19:55:08;1;0;0
70243;PMS7003;57634;51.136;17.024;2022-08-30T19:58:11;1;1;0
70243;PMS7003;57634;51.136;17.024;2022-08-30T20:01:12;1;1;0
70243;PMS7003;57634;51.136;17.024;2022-08-30T20:04:14;0;0;0
70243;PMS7003;57634;51.136;17.024;2022-08-30T20:07:16;0;0;0
70243;PMS7003;57634;51.136;17.024;2022-08-30T20:10:21;3;2;1
70243;PMS7003;57634;51.136;17.024;2022-08-30T20:13:23;1;1;1
70243;PMS7003;57634;51.136;17.024;2022-08-30T20:16:50;2;0;0
70243;PMS7003;57634;51.136;17.024;2022-08-30T20:19:53;1;1;0
70243;PMS7003;57634;51.136;17.024;2022-08-30T20:22:54;1;0;0
70243;PMS7003;57634;51.136;17.024;2022-08-30T20:25:56;1;1;0
70243;PMS7003;57634;51.136;17.024;2022-08-30T20:28:57;0;0;0
70243;PMS7003;57634;51.136;17.024;2022-08-30T20:31:59;0;0;0
70243;PMS7003;57634;51.136;17.024;2022-08-30T20:35:04;0;0;0
70243;PMS7003;57634;51.136;17.024;2022-08-30T20:38:07;2;1;0
70243;PMS7003;57634;51.136;17.024;2022-08-30T20:44:17;1;1;0
70243;PMS7003;57634;51.136;17.024;2022-08-30T20:47:19;1;1;0
70243;PMS7003;57634;51.136;17.024;2022-08-30T20:50:47;1;1;0
70243;PMS7003;57634;51.136;17.024;2022-08-30T20:53:49;0;0;0
70243;PMS7003;57634;51.136;17.024;2022-08-30T20:56:51;0;0;0
70243;PMS7003;57634;51.136;17.024;2022-08-30T20:59:53;1;1;1
70243;PMS7003;57634;51.136;17.024;2022-08-30T21:02:54;1;1;0
70243;PMS7003;57634;51.136;17.024;2022-08-30T21:05:56;1;1;1
70243;PMS7003;57634;51.136;17.024;2022-08-30T21:08:57;3;1;1
70243;PMS7003;57634;51.136;17.024;2022-08-30T21:11:59;1;1;0
70243;PMS7003;57634;51.136;17.024;2022-08-30T21:15:00;3;2;1
70243;PMS7003;57634;51.136;17.024;2022-08-30T21:18:02;2;2;1
70243;PMS7003;57634;51.136;17.024;2022-08-30T21:24:13;1;1;1
70243;PMS7003;57634;51.136;17.024;2022-08-30T21:27:41;2;1;1
70243;PMS7003;57634;51.136;17.024;2022-08-30T21:30:43;2;2;1
70243;PMS7003;57634;51.136;17.024;2022-08-30T21:33:45;3;2;1
70243;PMS7003;57634;51.136;17.024;2022-08-30T21:36:49;1;1;1
70243;PMS7003;57634;51.136;17.024;2022-08-30T21:39:51;1;1;0
70243;PMS7003;57634;51.136;17.024;2022-08-30T21:42:52;2;2;1
70243;PMS7003;57634;51.136;17.024;2022-08-30T21:45:53;1;1;0
70243;PMS7003;57634;51.136;17.024;2022-08-30T21:48:56;3;2;1
70243;PMS7003;57634;51.136;17.024;2022-08-30T21:52:00;1;1;0
70243;PMS7003;57634;51.136;17.024;2022-08-30T21:55:02;3;2;1
70243;PMS7003;57634;51.136;17.024;2022-08-30T21:58:04;3;2;1
70243;PMS7003;57634;51.136;17.024;2022-08-30T22:01:07;2;2;1